createdAt,value
2023-04-24T00:03:34.148Z,0.50
2023-04-24T00:08:56.267Z,0.30
2023-04-24T00:14:00.597Z,0.30
2023-04-24T00:19:03.444Z,0.40
2023-04-24T00:24:06.526Z,0.30
2023-04-24T00:29:10.706Z,0.30
2023-04-24T00:34:34.442Z,1.40
2023-04-24T00:39:37.323Z,0.25
2023-04-24T00:44:43.066Z,0.30
2023-04-24T00:49:46.097Z,0.30
2023-04-24T00:54:49.164Z,0.30
2023-04-24T01:00:12.915Z,0.25
2023-04-24T01:05:18.320Z,0.40
2023-04-24T01:10:21.440Z,0.40
2023-04-24T01:15:25.719Z,0.40
2023-04-24T01:20:32.908Z,0.40
2023-04-24T01:25:46.193Z,0.80
2023-04-24T01:30:49.140Z,0.30
2023-04-24T01:36:05.589Z,0.40
2023-04-24T01:41:09.933Z,0.30
2023-04-24T01:46:15.060Z,0.30
2023-04-24T01:51:20.739Z,0.60
2023-04-24T01:56:25.025Z,0.30
2023-04-24T02:01:36.875Z,0.87
2023-04-24T02:06:39.730Z,0.60
2023-04-24T02:11:43.906Z,0.80
2023-04-24T02:16:56.958Z,0.50
2023-04-24T02:21:59.881Z,0.40
2023-04-24T02:27:18.341Z,0.50
2023-04-24T02:32:21.192Z,0.50
2023-04-24T02:37:23.965Z,1.00
2023-04-24T02:42:35.587Z,0.40
2023-04-24T02:47:38.440Z,0.30
2023-04-24T02:52:42.352Z,0.30
2023-04-24T02:57:46.517Z,0.30
2023-04-24T03:02:50.514Z,0.47
2023-04-24T03:08:09.668Z,0.35
2023-04-24T03:13:13.899Z,0.30
2023-04-24T03:18:35.754Z,0.55
2023-04-24T03:23:40.004Z,0.57
2023-04-24T03:28:45.198Z,0.50
2023-04-24T03:33:59.257Z,0.60
2023-04-24T03:39:02.240Z,0.30
2023-04-24T03:44:10.354Z,0.30
2023-04-24T03:49:13.624Z,0.77
2023-04-24T03:54:20.220Z,0.60
2023-04-24T03:59:24.408Z,0.50
2023-04-24T04:04:41.606Z,0.40
2023-04-24T04:09:46.227Z,0.40
2023-04-24T04:14:50.423Z,0.40
2023-04-24T04:19:53.419Z,0.40
2023-04-24T04:24:58.450Z,1.80
2023-04-24T04:30:05.784Z,0.52
2023-04-24T04:35:15.881Z,0.30
2023-04-24T04:40:19.447Z,1.30
2023-04-24T04:45:29.796Z,0.70
2023-04-24T04:50:51.286Z,0.53
2023-04-24T04:55:56.433Z,0.45
2023-04-24T05:01:05.933Z,1.30
2023-04-24T05:06:14.080Z,0.40
2023-04-24T05:11:17.702Z,0.20
2023-04-24T05:16:22.471Z,0.70
2023-04-24T05:21:27.832Z,0.77
2023-04-24T05:26:31.742Z,1.75
2023-04-24T05:31:37.432Z,117.43
2023-04-24T05:36:40.611Z,129.77
2023-04-24T05:41:48.073Z,140.98
2023-04-24T05:46:52.410Z,118.35
2023-04-24T05:51:55.442Z,108.20
2023-04-24T05:56:59.316Z,101.28
2023-04-24T06:02:13.518Z,103.57
2023-04-24T06:07:23.967Z,89.57
2023-04-24T06:12:27.538Z,67.97
2023-04-24T06:17:38.019Z,64.07
2023-04-24T06:22:41.474Z,62.85
2023-04-24T06:27:45.547Z,66.90
2023-04-24T06:33:12.896Z,63.67
2023-04-24T06:38:22.363Z,62.90
2023-04-24T06:43:25.195Z,64.20
2023-04-24T06:48:29.348Z,59.63
2023-04-24T06:53:32.383Z,58.30
2023-04-24T06:58:36.869Z,58.75
2023-04-24T07:03:41.228Z,46.97
2023-04-24T07:08:44.657Z,51.15
2023-04-24T07:13:47.496Z,51.97
2023-04-24T07:18:51.618Z,50.57
2023-04-24T07:24:11.887Z,46.58
2023-04-24T07:29:15.200Z,54.40
2023-04-24T07:34:21.570Z,46.50
2023-04-24T07:39:24.693Z,45.73
2023-04-24T07:44:28.173Z,51.30
2023-04-24T07:49:49.759Z,38.65
2023-04-24T07:54:53.725Z,35.37
2023-04-24T07:59:57.627Z,30.77
2023-04-24T08:05:01.963Z,39.80
2023-04-24T08:10:05.846Z,31.73
2023-04-24T08:15:25.865Z,30.48
2023-04-24T08:20:30.456Z,24.38
2023-04-24T08:25:33.382Z,30.23
2023-04-24T08:30:36.165Z,32.00
2023-04-24T08:35:40.383Z,27.08
2023-04-24T08:41:03.768Z,28.13
2023-04-24T08:46:11.135Z,25.92
2023-04-24T08:51:16.765Z,25.13
2023-04-24T08:56:19.780Z,23.02
2023-04-24T09:01:22.758Z,26.10
2023-04-24T09:06:40.724Z,19.83
2023-04-24T09:11:43.630Z,26.70
2023-04-24T09:16:46.646Z,24.87
2023-04-24T09:21:50.781Z,15.50
2023-04-24T09:27:00.366Z,22.35
2023-04-24T09:32:22.569Z,22.00
2023-04-24T09:37:37.759Z,24.43
2023-04-24T09:42:40.775Z,19.58
2023-04-24T09:47:43.631Z,18.95
2023-04-24T09:52:49.314Z,13.00
2023-04-24T09:57:53.635Z,14.02
2023-04-24T10:02:57.374Z,9.65
2023-04-24T10:08:03.830Z,11.13
2023-04-24T10:13:07.823Z,15.20
2023-04-24T10:18:11.261Z,15.55
2023-04-24T10:23:28.325Z,14.95
2023-04-24T10:28:33.892Z,21.40
2023-04-24T10:33:37.190Z,16.53
2023-04-24T10:38:43.820Z,14.77
2023-04-24T10:43:46.692Z,4.68
2023-04-24T10:49:07.783Z,6.82
2023-04-24T10:54:25.852Z,9.00
2023-04-24T10:59:29.890Z,12.47
2023-04-24T11:04:34.470Z,10.35
2023-04-24T11:09:41.422Z,14.83
2023-04-24T11:15:03.606Z,11.63
2023-04-24T11:20:26.062Z,7.83
2023-04-24T11:25:32.740Z,4.72
2023-04-24T11:30:36.348Z,15.97
2023-04-24T11:35:42.560Z,15.00
2023-04-24T11:40:47.033Z,22.88
2023-04-24T11:45:50.957Z,9.73
2023-04-24T11:50:53.982Z,13.77
2023-04-24T11:55:58.232Z,12.80
2023-04-24T12:01:02.141Z,14.02
2023-04-24T12:06:09.301Z,12.32
2023-04-24T12:11:13.702Z,18.95
2023-04-24T12:16:16.653Z,23.20
2023-04-24T12:21:22.702Z,23.10
2023-04-24T12:26:27.709Z,20.42
2023-04-24T12:31:33.280Z,21.77
2023-04-24T12:36:37.379Z,16.08
2023-04-24T12:41:52.491Z,18.80
2023-04-24T12:47:16.115Z,27.17
2023-04-24T12:52:18.984Z,27.60
2023-04-24T12:57:23.412Z,25.50
2023-04-24T13:02:27.057Z,29.35
2023-04-24T13:07:30.112Z,29.33
2023-04-24T13:12:54.598Z,25.90
2023-04-24T13:17:57.498Z,31.85
2023-04-24T13:23:01.097Z,27.85
2023-04-24T13:28:05.756Z,26.17
2023-04-24T13:33:08.669Z,28.17
2023-04-24T13:38:32.140Z,31.73
2023-04-24T13:43:36.446Z,26.98
2023-04-24T13:48:39.300Z,28.67
2023-04-24T13:53:42.258Z,28.52
2023-04-24T13:58:46.823Z,34.28
2023-04-24T14:04:10.191Z,37.33
2023-04-24T14:09:13.722Z,28.35
2023-04-24T14:14:20.223Z,33.73
2023-04-24T14:19:23.059Z,29.27
2023-04-24T14:24:26.023Z,26.20
2023-04-24T14:29:50.633Z,27.65
2023-04-24T14:34:53.645Z,20.40
2023-04-24T14:40:14.758Z,25.67
2023-04-24T14:45:20.912Z,27.20
2023-04-24T14:50:24.844Z,30.52
2023-04-24T14:55:27.911Z,31.37
2023-04-24T15:00:32.061Z,23.33
2023-04-24T15:05:35.286Z,19.95
2023-04-24T15:10:38.611Z,26.17
2023-04-24T15:15:42.897Z,20.73
2023-04-24T15:20:59.333Z,23.58
2023-04-24T15:26:02.700Z,27.77
2023-04-24T15:31:07.025Z,26.13
2023-04-24T15:36:10.131Z,21.70
2023-04-24T15:41:13.343Z,18.57
2023-04-24T15:46:36.518Z,24.95
2023-04-24T15:51:39.530Z,16.70
2023-04-24T15:56:42.501Z,17.87
2023-04-24T16:01:46.701Z,23.92
2023-04-24T16:06:49.607Z,20.58
2023-04-24T16:12:09.312Z,28.60
2023-04-24T16:17:13.913Z,27.23
2023-04-24T16:22:17.981Z,28.50
2023-04-24T16:27:21.105Z,27.52
2023-04-24T16:32:25.601Z,29.92
2023-04-24T16:37:43.733Z,28.13
2023-04-24T16:42:47.577Z,25.40
2023-04-24T16:47:51.820Z,20.95
2023-04-24T16:52:54.663Z,22.73
2023-04-24T16:57:57.725Z,25.27
2023-04-24T17:03:20.513Z,18.70
2023-04-24T17:08:23.839Z,14.20
2023-04-24T17:13:27.012Z,14.18
2023-04-24T17:18:31.317Z,17.33
2023-04-24T17:23:35.147Z,13.05
2023-04-24T17:28:56.000Z,27.37
2023-04-24T17:34:00.225Z,21.50
2023-04-24T17:39:03.779Z,17.13
2023-04-24T17:44:06.897Z,21.07
2023-04-24T17:49:11.190Z,23.42
2023-04-24T17:54:33.961Z,20.13
2023-04-24T17:59:36.854Z,25.50
2023-04-24T18:04:43.092Z,21.50
2023-04-24T18:09:46.480Z,24.42
2023-04-24T18:14:50.349Z,24.77
2023-04-24T18:20:08.020Z,20.20
2023-04-24T18:25:11.992Z,21.00
2023-04-24T18:30:15.096Z,28.50
2023-04-24T18:35:19.716Z,24.77
2023-04-24T18:40:22.780Z,21.25
2023-04-24T18:45:45.879Z,17.87
2023-04-24T18:50:50.083Z,14.90
2023-04-24T18:55:53.048Z,13.20
2023-04-24T19:00:56.017Z,22.13
2023-04-24T19:06:00.301Z,19.87
2023-04-24T19:11:14.471Z,23.17
2023-04-24T19:16:19.878Z,27.57
2023-04-24T19:21:24.197Z,28.20
2023-04-24T19:26:28.264Z,40.45
2023-04-24T19:31:33.440Z,39.28
2023-04-24T19:36:50.983Z,41.67
2023-04-24T19:41:54.047Z,31.13
2023-04-24T19:46:57.543Z,23.85
2023-04-24T19:52:01.720Z,24.50
2023-04-24T19:57:06.690Z,21.77
2023-04-24T20:02:23.553Z,0.32
2023-04-24T20:07:27.868Z,1.42
2023-04-24T20:12:30.775Z,1.90
2023-04-24T20:17:33.663Z,0.40
2023-04-24T20:22:38.945Z,6.40
2023-04-24T20:27:59.383Z,0.85
2023-04-24T20:33:02.270Z,0.68
2023-04-24T20:38:06.770Z,0.60
2023-04-24T20:43:10.735Z,1.58
2023-04-24T20:48:13.596Z,2.45
2023-04-24T20:53:35.201Z,0.30
2023-04-24T20:58:38.075Z,0.40
2023-04-24T21:03:41.224Z,0.80
2023-04-24T21:08:45.579Z,1.33
2023-04-24T21:13:48.673Z,0.63
2023-04-24T21:18:51.916Z,1.00
2023-04-24T21:23:56.258Z,0.88
2023-04-24T21:28:59.226Z,1.30
2023-04-24T21:34:09.391Z,5.50
2023-04-24T21:39:13.824Z,1.52
2023-04-24T21:44:16.668Z,0.60
2023-04-24T21:49:19.571Z,1.00
2023-04-24T21:54:23.875Z,0.60
2023-04-24T21:59:45.824Z,1.70
2023-04-24T22:04:48.782Z,0.57
2023-04-24T22:09:53.206Z,1.63
2023-04-24T22:14:56.102Z,3.40
2023-04-24T22:19:59.032Z,0.70
2023-04-24T22:25:21.035Z,1.45
2023-04-24T22:30:23.821Z,0.70
2023-04-24T22:35:26.780Z,3.20
2023-04-24T22:40:31.424Z,1.30
2023-04-24T22:45:34.332Z,0.70
2023-04-24T22:50:56.081Z,1.52
2023-04-24T22:56:00.299Z,17.70
2023-04-24T23:01:04.211Z,0.30
2023-04-24T23:06:07.477Z,0.50
2023-04-24T23:11:11.819Z,0.57
2023-04-24T23:16:30.940Z,0.40
2023-04-24T23:21:34.206Z,0.80
2023-04-24T23:26:38.417Z,0.73
2023-04-24T23:31:41.573Z,0.50
2023-04-24T23:36:44.451Z,2.60
2023-04-24T23:42:07.703Z,0.90
2023-04-24T23:47:10.523Z,2.50
2023-04-24T23:52:13.387Z,1.42
2023-04-24T23:57:17.505Z,1.75
